createdAt,value
2018-11-14T07:17:36.648Z,1.90
2018-11-14T07:22:41.395Z,2.00
2018-11-14T07:27:45.554Z,2.30
2018-11-14T07:32:51.136Z,2.50
2018-11-14T07:38:59.851Z,2.60
2018-11-14T07:44:03.975Z,2.70
2018-11-14T07:49:07.449Z,2.80
2018-11-14T07:54:10.945Z,2.90
2018-11-14T07:59:15.066Z,3.00
2018-11-14T08:04:19.030Z,3.20
2018-11-14T08:09:23.011Z,3.40
2018-11-14T08:14:26.583Z,3.60
2018-11-14T08:19:30.043Z,3.50
2018-11-14T08:24:33.615Z,3.70
2018-11-14T08:29:37.269Z,3.80
2018-11-14T08:34:41.006Z,4.00
2018-11-14T08:39:44.653Z,4.00
2018-11-14T08:44:48.667Z,4.20
2018-11-14T08:49:53.375Z,4.50
2018-11-14T08:54:57.386Z,4.60
2018-11-14T09:00:01.494Z,4.70
2018-11-14T09:05:05.900Z,4.90
2018-11-14T09:10:15.303Z,4.90
2018-11-14T09:15:20.640Z,5.10
2018-11-14T09:20:25.576Z,5.20
2018-11-14T09:25:30.948Z,5.50
2018-11-14T09:30:34.703Z,5.50
2018-11-14T09:35:38.844Z,5.70
2018-11-14T09:40:43.046Z,5.80
2018-11-14T09:45:47.613Z,5.70
2018-11-14T09:50:51.156Z,5.80
2018-11-14T09:55:54.821Z,6.10
2018-11-14T10:00:58.375Z,6.40
2018-11-14T10:06:02.155Z,6.60
2018-11-14T10:11:06.231Z,6.40
2018-11-14T10:16:10.379Z,6.50
2018-11-14T10:21:14.334Z,6.70
2018-11-14T10:26:18.213Z,7.00
2018-11-14T10:31:22.922Z,7.50
2018-11-14T10:36:26.759Z,7.50
2018-11-14T10:41:30.278Z,7.90
2018-11-14T10:46:34.561Z,7.60
2018-11-14T10:51:38.680Z,7.30
2018-11-14T10:56:42.634Z,6.90
2018-11-14T11:01:52.622Z,6.70
2018-11-14T11:07:02.240Z,6.90
2018-11-14T11:12:11.468Z,7.30
2018-11-14T11:17:20.201Z,7.30
2018-11-14T11:22:23.739Z,7.40
2018-11-14T11:27:27.557Z,7.60
2018-11-14T11:32:31.278Z,7.60
2018-11-14T11:37:35.119Z,7.90
2018-11-14T11:42:38.868Z,7.00
2018-11-14T11:47:43.187Z,7.50
2018-11-14T11:52:47.293Z,8.20
2018-11-14T11:57:51.389Z,8.70
2018-11-14T12:02:54.964Z,8.50
2018-11-14T12:07:58.463Z,8.70
2018-11-14T12:13:02.522Z,9.20
2018-11-14T12:18:06.867Z,8.90
2018-11-14T12:23:11.152Z,9.30
2018-11-14T12:28:15.759Z,9.20
2018-11-14T12:33:19.801Z,9.00
2018-11-14T12:38:23.275Z,9.10
2018-11-14T12:43:28.011Z,9.00
2018-11-14T12:48:31.685Z,8.80
2018-11-14T12:53:35.904Z,9.00
2018-11-14T12:58:39.691Z,9.50
2018-11-14T13:03:43.433Z,9.30
2018-11-14T13:08:47.255Z,9.00
2018-11-14T13:13:51.538Z,9.10
2018-11-14T13:18:55.241Z,9.40
2018-11-14T13:23:59.984Z,9.60
2018-11-14T13:29:03.947Z,9.60
2018-11-14T13:34:08.100Z,9.70
2018-11-14T13:39:12.171Z,9.70
2018-11-14T13:44:16.171Z,9.80
2018-11-14T13:49:20.098Z,9.80
2018-11-14T13:54:24.971Z,9.80
2018-11-14T13:59:29.204Z,9.80
2018-11-14T14:04:33.257Z,9.70
2018-11-14T14:09:37.030Z,9.50
2018-11-14T14:14:40.956Z,9.50
2018-11-14T14:19:44.870Z,9.40
2018-11-14T14:24:48.651Z,9.50
2018-11-14T14:29:53.593Z,9.40
2018-11-14T14:34:59.524Z,9.40
2018-11-14T14:40:03.334Z,9.50
2018-11-14T14:45:08.727Z,9.50
2018-11-14T14:50:14.276Z,9.30
2018-11-14T14:55:20.163Z,9.10
2018-11-14T15:00:27.474Z,8.90
2018-11-14T15:05:31.784Z,8.80
2018-11-14T15:10:35.380Z,8.60
2018-11-14T15:15:39.622Z,8.30
2018-11-14T15:20:43.415Z,8.00
2018-11-14T15:25:47.193Z,7.70
2018-11-14T15:30:50.817Z,7.30
2018-11-14T15:35:54.737Z,7.00
2018-11-14T15:40:58.501Z,6.70
2018-11-14T15:46:02.200Z,6.30
2018-11-14T15:51:06.288Z,5.90
2018-11-14T15:56:09.922Z,5.70
2018-11-14T16:01:13.996Z,5.60
2018-11-14T16:06:18.148Z,5.50
2018-11-14T16:11:22.079Z,5.10
2018-11-14T16:16:26.090Z,4.90
2018-11-14T16:21:30.185Z,4.70
2018-11-14T16:26:34.904Z,4.60
2018-11-14T16:31:38.616Z,4.40
2018-11-14T16:36:43.407Z,4.30
2018-11-14T16:41:47.684Z,4.20
2018-11-14T16:46:51.755Z,4.10
2018-11-14T16:51:55.721Z,4.00
2018-11-14T16:56:59.675Z,3.80
2018-11-14T17:02:03.416Z,3.70
2018-11-14T17:07:07.106Z,3.70
2018-11-14T17:12:10.706Z,3.70
2018-11-14T17:17:14.474Z,3.70
2018-11-14T17:22:18.164Z,3.50
2018-11-14T17:27:21.711Z,3.40
2018-11-14T17:32:25.574Z,3.30
2018-11-14T17:37:29.276Z,3.40
2018-11-14T17:42:33.096Z,3.70
2018-11-14T17:47:36.678Z,3.80
2018-11-14T17:52:40.752Z,4.30
2018-11-14T17:57:44.569Z,4.60
2018-11-14T18:02:48.516Z,4.70
2018-11-14T18:07:52.971Z,4.70
2018-11-14T18:12:58.164Z,4.60
2018-11-14T18:18:02.568Z,4.50
2018-11-14T18:23:06.407Z,4.50
2018-11-14T18:28:10.733Z,4.40
2018-11-14T18:33:14.350Z,4.30
2018-11-14T18:38:18.703Z,4.30
2018-11-14T18:43:23.404Z,4.10
2018-11-14T18:48:27.588Z,4.00
2018-11-14T18:53:31.480Z,3.90
2018-11-14T18:58:35.211Z,3.80
2018-11-14T19:03:38.994Z,3.60
2018-11-14T19:08:42.611Z,3.50
2018-11-14T19:13:46.247Z,3.30
2018-11-14T19:18:50.141Z,3.10
2018-11-14T19:23:53.859Z,2.90
2018-11-14T19:28:58.320Z,2.60
2018-11-14T19:34:02.910Z,2.30
2018-11-14T19:39:10.193Z,2.20
2018-11-14T19:44:15.383Z,2.10
2018-11-14T19:49:19.524Z,2.10
2018-11-14T19:54:23.522Z,2.00
2018-11-14T19:59:27.918Z,1.80
2018-11-14T20:04:31.796Z,1.70
2018-11-14T20:09:35.568Z,1.60
2018-11-14T20:14:39.443Z,1.60
2018-11-14T20:19:42.997Z,1.50
2018-11-14T20:24:47.728Z,1.50
2018-11-14T20:29:52.783Z,1.50
2018-11-14T20:34:56.453Z,1.30
2018-11-14T20:40:00.542Z,1.20
2018-11-14T20:45:04.185Z,1.10
2018-11-14T20:50:11.368Z,1.10
2018-11-14T20:55:14.966Z,1.00
2018-11-14T21:00:22.669Z,0.90
2018-11-14T21:05:27.393Z,0.80
2018-11-14T21:10:32.170Z,0.80
2018-11-14T21:15:37.380Z,0.80
2018-11-14T21:20:41.089Z,0.80
2018-11-14T21:25:44.935Z,0.80
2018-11-14T21:30:48.510Z,0.80
2018-11-14T21:35:52.231Z,0.70
2018-11-14T21:40:55.872Z,0.70
2018-11-14T21:45:59.425Z,0.60
2018-11-14T21:51:02.966Z,0.50
2018-11-14T21:56:06.957Z,0.50
2018-11-14T22:01:10.650Z,0.60
2018-11-14T22:06:14.368Z,0.50
2018-11-14T22:11:18.570Z,0.50
2018-11-14T22:16:25.302Z,0.50
2018-11-14T22:21:29.152Z,0.50
2018-11-14T22:26:33.440Z,0.50
2018-11-14T22:31:38.931Z,0.50
2018-11-14T22:36:44.596Z,0.40
2018-11-14T22:41:49.139Z,0.30
2018-11-14T22:46:53.665Z,0.30
2018-11-14T22:51:57.345Z,0.40
2018-11-14T22:57:01.582Z,0.60
2018-11-14T23:02:06.450Z,0.70
2018-11-14T23:07:10.205Z,0.80
2018-11-14T23:12:14.395Z,0.80
2018-11-14T23:17:18.188Z,0.80
2018-11-14T23:22:21.670Z,0.70
2018-11-14T23:27:25.234Z,0.70
2018-11-14T23:32:28.699Z,0.50
2018-11-14T23:37:32.202Z,0.40
2018-11-14T23:42:36.285Z,0.30
2018-11-14T23:47:39.874Z,0.20
2018-11-14T23:52:44.831Z,0.30
2018-11-14T23:57:48.676Z,0.30
